createdAt,value
2018-08-08T00:00:24.922Z,80.90
2018-08-08T00:02:53.603Z,81.50
2018-08-08T00:05:23.226Z,82.00
2018-08-08T00:07:52.042Z,82.40
2018-08-08T00:10:20.815Z,82.90
2018-08-08T00:12:50.510Z,83.20
2018-08-08T00:15:19.276Z,83.10
2018-08-08T00:17:48.058Z,83.10
2018-08-08T00:20:16.843Z,83.80
2018-08-08T00:22:45.465Z,83.20
2018-08-08T00:25:14.978Z,83.30
2018-08-08T00:27:43.978Z,83.10
2018-08-08T00:30:13.988Z,83.50
2018-08-08T00:32:43.310Z,84.00
2018-08-08T00:35:12.101Z,84.20
2018-08-08T00:37:40.848Z,84.20
2018-08-08T00:40:12.368Z,84.10
2018-08-08T00:42:41.850Z,83.90
2018-08-08T00:45:13.197Z,83.80
2018-08-08T00:47:42.768Z,84.00
2018-08-08T00:50:12.989Z,83.90
2018-08-08T00:52:42.202Z,84.00
2018-08-08T00:55:11.277Z,84.10
2018-08-08T00:57:42.972Z,84.20
2018-08-08T01:00:16.374Z,84.00
2018-08-08T01:02:46.050Z,84.00
2018-08-08T01:05:15.651Z,84.30
2018-08-08T01:07:45.288Z,84.70
2018-08-08T01:10:14.046Z,85.50
2018-08-08T01:12:42.798Z,85.60
2018-08-08T01:15:12.967Z,85.50
2018-08-08T01:17:41.878Z,85.40
2018-08-08T01:20:14.200Z,86.20
2018-08-08T01:22:42.967Z,85.60
2018-08-08T01:25:14.114Z,84.40
2018-08-08T01:27:43.190Z,83.80
2018-08-08T01:30:17.817Z,84.00
2018-08-08T01:32:46.478Z,83.90
2018-08-08T01:35:15.220Z,83.60
2018-08-08T01:37:44.148Z,83.40
2018-08-08T01:40:15.921Z,83.40
2018-08-08T01:42:44.755Z,83.00
2018-08-08T01:45:14.670Z,83.00
2018-08-08T01:47:43.346Z,83.30
2018-08-08T01:50:13.584Z,83.30
2018-08-08T01:52:42.357Z,83.50
2018-08-08T01:55:12.177Z,83.80
2018-08-08T01:57:41.046Z,84.40
2018-08-08T02:00:12.423Z,84.30
2018-08-08T02:02:41.426Z,84.10
2018-08-08T02:05:10.535Z,83.90
2018-08-08T02:07:39.589Z,84.70
2018-08-08T02:10:11.963Z,84.80
2018-08-08T02:12:41.225Z,84.90
2018-08-08T02:15:12.770Z,85.30
2018-08-08T02:17:41.668Z,85.10
2018-08-08T02:20:11.263Z,85.30
2018-08-08T02:22:40.756Z,85.80
2018-08-08T02:25:10.941Z,86.00
2018-08-08T02:27:39.727Z,86.50
2018-08-08T02:30:17.503Z,87.10
2018-08-08T02:32:47.151Z,87.40
2018-08-08T02:35:15.926Z,87.30
2018-08-08T02:37:44.798Z,87.00
2018-08-08T02:40:13.871Z,86.00
2018-08-08T02:42:42.783Z,85.70
2018-08-08T02:45:15.638Z,85.80
2018-08-08T02:47:44.630Z,85.60
2018-08-08T02:50:15.578Z,85.80
2018-08-08T02:52:44.504Z,86.10
2018-08-08T02:55:13.750Z,86.20
2018-08-08T02:57:42.836Z,86.40
2018-08-08T03:00:16.313Z,86.60
2018-08-08T03:02:45.454Z,86.70
2018-08-08T03:05:14.093Z,86.80
2018-08-08T03:07:43.597Z,86.70
2018-08-08T03:10:14.425Z,86.60
2018-08-08T03:12:43.150Z,86.30
2018-08-08T03:15:14.302Z,86.10
2018-08-08T03:17:43.085Z,86.30
2018-08-08T03:20:14.053Z,86.50
2018-08-08T03:22:44.018Z,86.60
2018-08-08T03:25:13.961Z,86.80
2018-08-08T03:27:43.430Z,87.20
2018-08-08T03:30:16.304Z,87.60
2018-08-08T03:32:45.020Z,87.80
2018-08-08T03:35:13.981Z,87.80
2018-08-08T03:37:42.668Z,88.40
2018-08-08T03:40:13.124Z,88.80
2018-08-08T03:42:42.359Z,88.90
2018-08-08T03:45:13.228Z,89.10
2018-08-08T03:47:41.947Z,89.50
2018-08-08T03:50:11.510Z,89.70
2018-08-08T03:52:41.342Z,90.10
2018-08-08T03:55:10.754Z,90.10
2018-08-08T03:57:39.709Z,90.40
2018-08-08T04:00:15.712Z,90.50
2018-08-08T04:02:44.687Z,90.50
2018-08-08T04:05:14.000Z,90.60
2018-08-08T04:07:42.737Z,91.60
2018-08-08T04:10:12.529Z,90.60
2018-08-08T04:12:41.202Z,90.50
2018-08-08T04:15:13.604Z,90.40
2018-08-08T04:17:42.455Z,90.20
2018-08-08T04:20:11.465Z,90.10
2018-08-08T04:22:40.309Z,89.70
2018-08-08T04:25:11.035Z,89.30
2018-08-08T04:27:40.185Z,88.70
2018-08-08T04:30:12.415Z,88.30
2018-08-08T04:32:41.141Z,88.30
2018-08-08T04:35:10.048Z,88.10
2018-08-08T04:37:39.047Z,88.00
2018-08-08T04:40:15.377Z,87.60
2018-08-08T04:42:45.285Z,87.00
2018-08-08T04:45:14.662Z,87.10
2018-08-08T04:47:44.042Z,86.80
2018-08-08T04:50:12.942Z,86.70
2018-08-08T04:52:42.252Z,86.30
2018-08-08T04:55:13.053Z,86.10
2018-08-08T04:57:41.922Z,85.80
2018-08-08T05:00:14.777Z,85.00
2018-08-08T05:02:43.771Z,84.60
2018-08-08T05:05:12.555Z,83.80
2018-08-08T05:07:41.335Z,82.70
2018-08-08T05:10:11.625Z,81.90
2018-08-08T05:12:41.206Z,81.40
2018-08-08T05:15:15.257Z,80.20
2018-08-08T05:17:44.773Z,79.20
2018-08-08T05:20:14.217Z,79.80
2018-08-08T05:22:43.470Z,81.30
2018-08-08T05:25:12.303Z,82.00
2018-08-08T05:27:41.018Z,79.70
2018-08-08T05:30:16.282Z,80.10
2018-08-08T05:32:45.018Z,79.90
2018-08-08T05:35:15.645Z,80.20
2018-08-08T05:37:44.568Z,80.00
2018-08-08T05:40:17.209Z,79.40
2018-08-08T05:42:46.805Z,79.00
2018-08-08T05:45:16.030Z,78.70
2018-08-08T05:47:48.437Z,78.70
2018-08-08T05:50:17.438Z,79.00
2018-08-08T05:52:46.373Z,77.30
2018-08-08T05:55:16.636Z,77.40
2018-08-08T05:57:46.009Z,76.90
2018-08-08T06:00:22.450Z,76.50
2018-08-08T06:02:51.348Z,75.80
2018-08-08T06:05:20.081Z,73.40
2018-08-08T06:07:49.693Z,72.00
2018-08-08T06:10:18.390Z,71.40
2018-08-08T06:12:47.224Z,71.00
2018-08-08T06:15:17.392Z,71.10
2018-08-08T06:17:46.190Z,72.30
2018-08-08T06:20:17.241Z,73.10
2018-08-08T06:22:46.833Z,73.40
2018-08-08T06:25:15.871Z,73.40
2018-08-08T06:27:45.014Z,71.70
2018-08-08T06:30:21.011Z,69.80
2018-08-08T06:32:50.385Z,68.40
2018-08-08T06:35:21.619Z,67.30
2018-08-08T06:37:50.738Z,65.60
2018-08-08T06:40:19.644Z,63.70
2018-08-08T06:42:48.390Z,63.40
2018-08-08T06:45:22.146Z,63.30
2018-08-08T06:47:50.911Z,63.50
2018-08-08T06:50:19.628Z,63.10
2018-08-08T06:52:48.333Z,62.20
2018-08-08T06:55:17.435Z,61.00
2018-08-08T06:57:46.213Z,59.60
2018-08-08T07:00:21.919Z,59.90
2018-08-08T07:02:51.245Z,59.10
2018-08-08T07:05:20.032Z,57.70
2018-08-08T07:07:49.593Z,57.40
2018-08-08T07:10:18.473Z,57.70
2018-08-08T07:12:47.167Z,57.80
2018-08-08T07:15:17.196Z,57.30
2018-08-08T07:17:46.142Z,57.60
2018-08-08T07:20:16.651Z,57.50
2018-08-08T07:22:45.676Z,56.20
2018-08-08T07:25:16.263Z,57.80
2018-08-08T07:27:45.321Z,57.80
2018-08-08T07:30:17.055Z,57.90
2018-08-08T07:32:45.870Z,57.00
2018-08-08T07:35:14.763Z,56.60
2018-08-08T07:37:45.476Z,55.00
2018-08-08T07:40:16.274Z,54.50
2018-08-08T07:42:45.140Z,53.60
2018-08-08T07:45:17.555Z,53.50
2018-08-08T07:47:46.653Z,53.70
2018-08-08T07:50:15.465Z,53.10
2018-08-08T07:52:44.776Z,53.10
2018-08-08T07:55:14.872Z,52.10
2018-08-08T07:57:43.914Z,50.40
2018-08-08T08:00:29.792Z,51.20
2018-08-08T08:02:59.819Z,51.30
2018-08-08T08:05:29.311Z,51.30
2018-08-08T08:07:58.616Z,50.00
2018-08-08T08:10:27.866Z,48.30
2018-08-08T08:12:56.595Z,49.10
2018-08-08T08:15:25.304Z,49.40
2018-08-08T08:17:53.966Z,48.90
2018-08-08T08:20:22.746Z,50.70
2018-08-08T08:22:51.599Z,49.70
2018-08-08T08:25:20.323Z,49.50
2018-08-08T08:27:49.909Z,48.00
2018-08-08T08:30:19.350Z,49.00
2018-08-08T08:32:48.055Z,47.40
2018-08-08T08:35:16.695Z,46.60
2018-08-08T08:37:45.379Z,46.20
2018-08-08T08:40:14.165Z,46.10
2018-08-08T08:42:43.256Z,45.00
2018-08-08T08:45:11.985Z,47.00
2018-08-08T08:47:40.736Z,46.70
2018-08-08T08:50:10.116Z,45.00
2018-08-08T08:52:38.826Z,43.50
2018-08-08T08:55:07.782Z,45.10
2018-08-08T08:57:36.813Z,44.30
2018-08-08T09:00:08.368Z,43.60
2018-08-08T09:02:37.049Z,43.10
2018-08-08T09:05:07.633Z,41.70
2018-08-08T09:07:36.348Z,42.90
2018-08-08T09:10:06.794Z,43.30
2018-08-08T09:12:35.545Z,43.40
2018-08-08T09:15:05.925Z,42.50
2018-08-08T09:17:34.546Z,41.30
2018-08-08T09:20:03.287Z,39.40
2018-08-08T09:22:32.063Z,39.00
2018-08-08T09:25:00.809Z,39.20
2018-08-08T09:27:29.585Z,39.90
2018-08-08T09:30:03.901Z,41.20
2018-08-08T09:32:32.627Z,40.80
2018-08-08T09:35:01.290Z,40.50
2018-08-08T09:37:30.103Z,38.50
2018-08-08T09:39:59.129Z,37.70
2018-08-08T09:42:27.886Z,38.20
2018-08-08T09:44:56.566Z,37.00
2018-08-08T09:47:25.619Z,34.80
2018-08-08T09:49:54.306Z,34.80
2018-08-08T09:52:22.941Z,34.50
2018-08-08T09:54:51.609Z,34.60
2018-08-08T09:57:20.266Z,33.50
2018-08-08T09:59:48.924Z,34.00
2018-08-08T10:02:23.115Z,33.10
2018-08-08T10:04:51.836Z,33.80
2018-08-08T10:07:20.618Z,32.50
2018-08-08T10:09:49.361Z,29.90
2018-08-08T10:12:19.348Z,30.00
2018-08-08T10:14:48.192Z,31.10
2018-08-08T10:17:16.887Z,30.50
2018-08-08T10:19:45.593Z,30.50
2018-08-08T10:22:14.304Z,30.50
2018-08-08T10:24:43.232Z,29.90
2018-08-08T10:27:11.979Z,28.70
2018-08-08T10:29:40.713Z,28.90
2018-08-08T10:32:09.770Z,29.10
2018-08-08T10:34:38.744Z,29.20
2018-08-08T10:37:07.534Z,28.90
2018-08-08T10:39:36.340Z,29.00
2018-08-08T10:42:05.102Z,28.30
2018-08-08T10:44:33.810Z,28.10
2018-08-08T10:47:02.936Z,28.70
2018-08-08T10:49:31.586Z,28.90
2018-08-08T10:52:00.338Z,29.10
2018-08-08T10:54:29.038Z,29.70
2018-08-08T10:56:57.853Z,28.70
2018-08-08T10:59:26.635Z,29.50
2018-08-08T11:01:55.520Z,28.70
2018-08-08T11:04:24.513Z,28.30
2018-08-08T11:06:53.331Z,28.10
2018-08-08T11:09:22.147Z,28.80
2018-08-08T11:11:51.145Z,29.30
2018-08-08T11:14:21.041Z,29.00
2018-08-08T11:16:50.076Z,28.10
2018-08-08T11:19:19.124Z,29.10
2018-08-08T11:21:48.335Z,30.30
2018-08-08T11:24:17.413Z,29.60
2018-08-08T11:26:46.107Z,28.60
2018-08-08T11:29:14.851Z,28.00
2018-08-08T11:31:43.641Z,27.80
2018-08-08T11:34:12.559Z,27.60
2018-08-08T11:36:41.373Z,27.10
2018-08-08T11:39:11.553Z,27.90
2018-08-08T11:41:40.714Z,27.60
2018-08-08T11:44:10.350Z,26.90
2018-08-08T11:46:39.238Z,28.60
2018-08-08T11:49:09.006Z,30.10
2018-08-08T11:51:37.770Z,32.40
2018-08-08T11:54:07.837Z,33.60
2018-08-08T11:56:36.615Z,33.70
2018-08-08T11:59:05.627Z,34.80
2018-08-08T12:01:34.375Z,35.50
2018-08-08T12:04:04.208Z,35.00
2018-08-08T12:06:33.676Z,36.10
2018-08-08T12:09:03.944Z,36.40
2018-08-08T12:11:32.670Z,34.70
2018-08-08T12:14:01.408Z,33.80
2018-08-08T12:16:30.198Z,32.80
2018-08-08T12:18:59.093Z,32.10
2018-08-08T12:21:27.932Z,31.60
2018-08-08T12:23:56.777Z,31.20
2018-08-08T12:26:25.767Z,31.10
2018-08-08T12:28:54.750Z,30.70
2018-08-08T12:31:23.450Z,31.50
2018-08-08T12:33:52.175Z,32.30
2018-08-08T12:36:20.900Z,33.30
2018-08-08T12:38:49.592Z,34.60
2018-08-08T12:41:18.887Z,36.00
2018-08-08T12:43:47.587Z,37.60
2018-08-08T12:46:16.656Z,37.50
2018-08-08T12:48:45.440Z,38.40
2018-08-08T12:51:14.112Z,39.20
2018-08-08T12:53:42.772Z,40.30
2018-08-08T12:56:11.531Z,40.10
2018-08-08T12:58:40.277Z,40.40
2018-08-08T13:01:09.111Z,39.80
2018-08-08T13:03:37.854Z,40.10
2018-08-08T13:06:06.674Z,40.60
2018-08-08T13:08:35.590Z,40.20
2018-08-08T13:11:04.413Z,41.80
2018-08-08T13:13:33.308Z,43.40
2018-08-08T13:16:02.225Z,44.00
2018-08-08T13:18:31.449Z,46.10
2018-08-08T13:21:01.306Z,47.10
2018-08-08T13:23:30.054Z,47.70
2018-08-08T13:26:01.110Z,48.10
2018-08-08T13:28:29.984Z,47.30
2018-08-08T13:30:59.575Z,47.20
2018-08-08T13:33:28.790Z,46.30
2018-08-08T13:35:57.859Z,46.40
2018-08-08T13:38:26.713Z,47.40
2018-08-08T13:40:56.240Z,45.80
2018-08-08T13:43:25.116Z,45.20
2018-08-08T13:45:54.340Z,45.00
2018-08-08T13:48:23.259Z,45.20
2018-08-08T13:50:52.123Z,46.10
2018-08-08T13:53:20.911Z,46.70
2018-08-08T13:55:49.676Z,48.30
2018-08-08T13:58:18.463Z,49.40
2018-08-08T14:00:47.423Z,50.50
2018-08-08T14:03:16.781Z,50.00
2018-08-08T14:05:45.503Z,50.30
2018-08-08T14:08:14.451Z,50.20
2018-08-08T14:10:43.971Z,48.30
2018-08-08T14:13:12.804Z,48.70
2018-08-08T14:15:41.682Z,48.80
2018-08-08T14:18:11.144Z,49.40
2018-08-08T14:20:40.694Z,49.80
2018-08-08T14:23:09.414Z,49.90
2018-08-08T14:25:38.470Z,49.50
2018-08-08T14:28:07.349Z,48.70
2018-08-08T14:30:36.158Z,49.80
2018-08-08T14:33:05.288Z,49.70
2018-08-08T14:35:34.067Z,49.90
2018-08-08T14:38:02.744Z,49.90
2018-08-08T14:40:31.794Z,49.50
2018-08-08T14:43:00.435Z,49.80
2018-08-08T14:45:29.087Z,48.80
2018-08-08T14:47:57.784Z,50.50
2018-08-08T14:50:26.499Z,50.70
2018-08-08T14:52:55.931Z,50.20
2018-08-08T14:55:24.628Z,50.10
2018-08-08T14:57:53.437Z,49.90
2018-08-08T15:00:22.111Z,49.10
2018-08-08T15:02:50.751Z,48.70
2018-08-08T15:05:19.873Z,47.90
2018-08-08T15:07:48.536Z,47.80
2018-08-08T15:10:17.901Z,48.20
2018-08-08T15:12:46.724Z,48.50
2018-08-08T15:15:15.951Z,49.00
2018-08-08T15:17:50.282Z,47.90
2018-08-08T15:20:19.434Z,47.90
2018-08-08T15:22:48.085Z,47.60
2018-08-08T15:25:16.916Z,48.10
2018-08-08T15:27:45.648Z,47.00
2018-08-08T15:30:14.778Z,47.70
2018-08-08T15:32:46.239Z,47.30
2018-08-08T15:35:23.068Z,45.80
2018-08-08T15:37:55.464Z,45.80
2018-08-08T15:40:24.336Z,46.20
2018-08-08T15:42:53.031Z,46.60
2018-08-08T15:45:21.750Z,47.20
2018-08-08T15:47:50.394Z,46.50
2018-08-08T15:50:19.051Z,46.00
2018-08-08T15:52:47.923Z,45.30
2018-08-08T15:55:16.678Z,44.90
2018-08-08T15:57:45.433Z,44.60
2018-08-08T16:00:14.836Z,45.00
2018-08-08T16:02:43.441Z,46.70
2018-08-08T16:05:12.063Z,45.80
2018-08-08T16:07:40.678Z,46.60
2018-08-08T16:10:10.973Z,46.20
2018-08-08T16:12:39.794Z,46.70
2018-08-08T16:15:09.909Z,47.80
2018-08-08T16:17:38.548Z,46.60
2018-08-08T16:20:07.275Z,46.70
2018-08-08T16:22:35.955Z,47.80
2018-08-08T16:25:06.043Z,48.60
2018-08-08T16:27:34.754Z,49.00
2018-08-08T16:30:05.491Z,49.30
2018-08-08T16:32:34.135Z,49.60
2018-08-08T16:35:02.878Z,49.40
2018-08-08T16:37:31.606Z,49.60
2018-08-08T16:40:00.616Z,50.20
2018-08-08T16:42:29.250Z,50.90
2018-08-08T16:44:57.872Z,50.80
2018-08-08T16:47:26.606Z,51.70
2018-08-08T16:49:55.351Z,51.90
2018-08-08T16:52:24.119Z,52.10
2018-08-08T16:54:52.826Z,51.50
2018-08-08T16:57:21.779Z,50.80
2018-08-08T16:59:50.516Z,51.50
2018-08-08T17:02:19.223Z,51.50
2018-08-08T17:04:47.894Z,51.80
2018-08-08T17:07:16.536Z,51.70
2018-08-08T17:09:45.338Z,52.00
2018-08-08T17:12:13.978Z,52.30
2018-08-08T17:14:42.604Z,52.70
2018-08-08T17:17:11.888Z,52.50
2018-08-08T17:19:40.627Z,51.60
2018-08-08T17:22:09.380Z,52.20
2018-08-08T17:24:38.126Z,51.90
2018-08-08T17:27:07.068Z,52.30
2018-08-08T17:29:35.979Z,52.30
2018-08-08T17:32:04.870Z,52.80
2018-08-08T17:34:34.100Z,52.60
2018-08-08T17:37:02.881Z,53.30
2018-08-08T17:39:31.634Z,54.50
2018-08-08T17:42:00.353Z,55.00
2018-08-08T17:44:29.289Z,57.70
2018-08-08T17:46:58.409Z,58.60
2018-08-08T17:49:28.831Z,60.80
2018-08-08T17:51:57.654Z,62.80
2018-08-08T17:54:26.397Z,63.90
2018-08-08T17:56:55.244Z,65.30
2018-08-08T17:59:23.973Z,66.50
2018-08-08T18:01:52.854Z,67.20
2018-08-08T18:04:21.598Z,67.50
2018-08-08T18:06:50.323Z,67.90
2018-08-08T18:09:19.075Z,67.90
2018-08-08T18:11:49.004Z,68.30
2018-08-08T18:14:17.739Z,68.40
2018-08-08T18:16:46.436Z,68.40
2018-08-08T18:19:15.650Z,68.90
2018-08-08T18:21:44.398Z,69.10
2018-08-08T18:24:13.093Z,69.50
2018-08-08T18:26:41.781Z,69.30
2018-08-08T18:29:10.584Z,68.70
2018-08-08T18:31:39.656Z,69.20
2018-08-08T18:34:08.452Z,69.40
2018-08-08T18:36:37.415Z,70.00
2018-08-08T18:39:09.068Z,71.20
2018-08-08T18:41:37.980Z,71.80
2018-08-08T18:44:06.910Z,71.30
2018-08-08T18:46:36.052Z,71.30
2018-08-08T18:49:04.892Z,71.60
2018-08-08T18:51:34.329Z,72.40
2018-08-08T18:54:03.431Z,73.50
2018-08-08T18:56:32.196Z,74.60
2018-08-08T18:59:01.659Z,75.80
2018-08-08T19:01:31.212Z,76.20
2018-08-08T19:04:00.675Z,76.00
2018-08-08T19:06:29.866Z,75.80
2018-08-08T19:08:58.629Z,75.50
2018-08-08T19:11:27.408Z,75.60
2018-08-08T19:13:56.177Z,75.40
2018-08-08T19:16:24.981Z,75.50
2018-08-08T19:18:54.005Z,75.80
2018-08-08T19:21:22.706Z,75.90
2018-08-08T19:23:51.428Z,75.90
2018-08-08T19:26:20.592Z,75.90
2018-08-08T19:28:49.442Z,75.90
2018-08-08T19:31:18.304Z,76.00
2018-08-08T19:33:47.360Z,76.30
2018-08-08T19:36:16.143Z,76.30
2018-08-08T19:38:44.926Z,76.30
2018-08-08T19:41:13.771Z,76.40
2018-08-08T19:43:42.651Z,76.30
2018-08-08T19:46:11.655Z,76.30
2018-08-08T19:48:40.508Z,76.00
2018-08-08T19:51:09.621Z,75.70
2018-08-08T19:53:38.654Z,75.40
2018-08-08T19:56:07.636Z,75.30
2018-08-08T19:58:36.441Z,75.50
2018-08-08T20:01:05.224Z,75.60
2018-08-08T20:03:34.943Z,75.60
2018-08-08T20:06:03.804Z,76.40
2018-08-08T20:08:32.931Z,76.70
2018-08-08T20:11:01.709Z,77.10
2018-08-08T20:13:30.493Z,77.00
2018-08-08T20:16:00.223Z,76.60
2018-08-08T20:18:29.355Z,76.60
2018-08-08T20:20:58.506Z,76.60
2018-08-08T20:23:29.309Z,76.80
2018-08-08T20:25:58.731Z,77.30
2018-08-08T20:28:27.531Z,77.70
2018-08-08T20:30:56.305Z,78.20
2018-08-08T20:33:25.034Z,78.30
2018-08-08T20:35:53.855Z,77.80
2018-08-08T20:38:22.685Z,77.70
2018-08-08T20:40:51.439Z,78.10
2018-08-08T20:43:20.323Z,78.30
2018-08-08T20:45:49.191Z,78.50
2018-08-08T20:48:18.576Z,78.60
2018-08-08T20:50:47.338Z,78.80
2018-08-08T20:53:16.073Z,79.40
2018-08-08T20:55:44.777Z,79.50
2018-08-08T20:58:13.475Z,79.90
2018-08-08T21:00:42.400Z,79.90
2018-08-08T21:03:11.115Z,79.80
2018-08-08T21:05:39.916Z,79.50
2018-08-08T21:08:08.722Z,79.40
2018-08-08T21:10:37.852Z,79.40
2018-08-08T21:13:06.691Z,79.60
2018-08-08T21:15:35.437Z,79.40
2018-08-08T21:18:04.344Z,79.50
2018-08-08T21:20:33.143Z,79.30
2018-08-08T21:23:02.126Z,79.40
2018-08-08T21:25:31.063Z,80.00
2018-08-08T21:27:59.943Z,80.30
2018-08-08T21:30:29.646Z,81.00
2018-08-08T21:32:58.650Z,81.30
2018-08-08T21:35:27.514Z,81.50
2018-08-08T21:37:56.387Z,81.90
2018-08-08T21:40:25.213Z,82.00
2018-08-08T21:42:54.741Z,82.10
2018-08-08T21:45:23.608Z,82.10
2018-08-08T21:47:52.466Z,82.40
2018-08-08T21:50:21.247Z,82.80
2018-08-08T21:52:50.133Z,84.10
2018-08-08T21:55:35.636Z,83.60
2018-08-08T21:58:22.821Z,83.90
2018-08-08T22:01:11.179Z,83.90
2018-08-08T22:04:59.895Z,83.90
2018-08-08T22:07:45.395Z,84.00
2018-08-08T22:10:31.018Z,84.60
2018-08-08T22:13:16.591Z,84.70
2018-08-08T22:16:02.154Z,85.10
2018-08-08T22:18:47.988Z,85.40
2018-08-08T22:21:17.246Z,85.50
2018-08-08T22:23:47.052Z,85.00
2018-08-08T22:26:17.200Z,85.20
2018-08-08T22:28:46.270Z,85.20
2018-08-08T22:31:15.194Z,85.10
2018-08-08T22:33:44.202Z,85.20
2018-08-08T22:36:12.943Z,85.20
2018-08-08T22:38:41.650Z,85.60
2018-08-08T22:41:10.572Z,85.70
2018-08-08T22:43:39.326Z,85.80
2018-08-08T22:46:08.084Z,85.70
2018-08-08T22:48:36.791Z,86.00
2018-08-08T22:51:05.641Z,86.10
2018-08-08T22:53:34.398Z,86.20
2018-08-08T22:56:03.115Z,86.70
2018-08-08T22:58:32.297Z,85.40
2018-08-08T23:01:01.091Z,85.50
2018-08-08T23:03:29.909Z,85.80
2018-08-08T23:05:58.744Z,85.80
2018-08-08T23:08:32.024Z,85.90
2018-08-08T23:11:01.173Z,86.10
2018-08-08T23:13:29.940Z,85.60
2018-08-08T23:15:58.736Z,84.50
2018-08-08T23:18:27.513Z,84.60
2018-08-08T23:20:56.205Z,85.20
2018-08-08T23:23:24.919Z,85.60
2018-08-08T23:25:53.612Z,85.90
2018-08-08T23:28:22.326Z,85.80
2018-08-08T23:30:51.130Z,86.10
2018-08-08T23:33:19.799Z,86.10
2018-08-08T23:35:48.531Z,86.50
2018-08-08T23:38:17.226Z,86.20
2018-08-08T23:40:46.001Z,86.50
2018-08-08T23:43:14.965Z,86.60
2018-08-08T23:45:43.752Z,86.00
2018-08-08T23:48:12.474Z,85.80
2018-08-08T23:50:41.159Z,85.30
2018-08-08T23:53:09.917Z,85.70
2018-08-08T23:55:38.619Z,86.50
2018-08-08T23:58:07.420Z,87.10
